Página principal
METAR-TAF:

METAR-TAF

Aeroportos :

Aeroporto Internacional de Christchurch

Christchurch, Nova Zelândia

latitude: 43-29S, longitude: 172-33E, altura: 38 m

Observação actual do tempo

O boletim foi feito há 16 minutos, às 01:00 UTC
Vento 4 kt de es-nordeste, variando entre nor-nordeste e es-sudeste
Temperatura 11°C
Humidade 94%
Pressão 1002 hPa
Visibilidade 10 km ou mais

METAR: NZCH 160100Z AUTO 07004KT 030V110 9999 FEW006/// 11/10 Q1002 NOSIG

Hora: 13:16 (01:16 UTC)

Previsão

O boletim foi feito há 2 horas e 13 minutos, às 23:03 UTC
Previsão válida de 16 às 00 UTC a 17 às 00 UTC
Vento 10 kt de nordeste
Visibilidade 10 km ou mais
Nuvens dispersasa uma altura de 4000 ft
Tornando-se
de 16 às 09 UTC a 16 às 11 UTC
Vento 5 kt de oes-noroeste

TAF: NZCH 152303Z 1600/1700 04010KT 9999 SCT040 BECMG 1609/1611 30005KT

Observações e previsões do tempo de mais de 4000 aeroportos (mensagens METAR e TAF).

As estações disponíveis são os pontos amarelos e vermelhos sobre o mapa.

Mova o rato sobre o mapa para ver o nome da estação.

Depois clique no ponto para visualizar as observações e previsões meteorológicas.

Para alterar o mapa : clique nos botões verdes com uma cruz preta para aumentar o zoom; no botão verde com uma pitada de zoom; ou nas setas verdes para mapas adjacentes.


METAR-TAF: